Current Conditions
Mostly Clear
Conditions



Pressure
1019.92 (hPa) - 30.12 (inHG)
Visibility

10.0 (km) - 6.2 (miles)
Temperature
21  °C
Temperature
3  °C
Dewpoint
31  %
 Humidity
Wind Speed
16  km/h
9  kts
10  mph
4.5  m/s
Wind Direction
N
45°
E
90°
135°
S
180°
225°
W
270°
315°
 120°

East South
East
Airport Data
YPPH
Perth International Airport
Metar :YPPH 291430Z 12009KT CAVOK 21/03 Q1020
Thu 29th September 22:30 pm
Raw Metar Info
Raw METAR is the most common format in the world for the transmission of observational weather data. It is highly standardized through the International Civil Aviation Organization (ICAO), which allows it to be understood throughout most of the world.
API Info
Data Provided by
https://www.checkwx.com/weather/YPPH

Aviation Weather providing METAR, TAF, AIRMET, SIGMET and OUTLOOK Weather Reports
© Info
CSS/SVG/PHP scripts were developed by weather34 for use in the weather34 template © 2015-2022

Guide Info provided by Metar-Wikipedia